Alts de San Benito, Puerto Rico
Current Conditions -  °F | °C
As of 6:53 AM on Friday 21 Nov 2014 (Local Time) from TJNR Reporting Station
Broken Clouds Broken Clouds  
Wind Chill: 81°   Ceiling: 2800
Heat Index: 85°   Visibility: 10mi
Dew Point: 72°   Wind: 9mph
Humidity: 74%   Direction: 70°ENE
Pressure: 30.02"   Gusts: NA
Location:  18.1494°N, 65.8294°W
Report Text: TJNR 211053Z AUTO 07008KT 10SM BKN028 27/22 A3002 RMK AO2 SLP166 T02720222 $
Loading
Personal Weather Stations






























Interactive Weather Map New forecast layout! Learn more

10-Day Weather Forecast

Advertisements
Track Severe Weather on mobile